首页
METAR-TAF:

METAR-TAF

机场 :

Orlando Executive Airport

奥兰多, 佛罗里达州, 美国

纬度: 28-32-47N, 经度: 081-20-09W, 海拔: 34米

当前天气观测

该预报发布于31分钟前的17:53 UTC
静风
温度 33°C
湿度 49%
气压 1013 hPa
能見度: 16.1公里
散云层高于5000英尺
多云层高于6500英尺

METAR: KORL 041753Z 00000KT 10SM SCT050 BKN065 33/21 A2992 RMK AO2 LTG DSNT W AND NW SLP134 T03330206 10333 20267 58013

时间: 14:24 (18:24 UTC)


TAF: 丢失

超过4000个机场的气象观测和天气预报(METAR&TAF报告)。

可查询的气象台以黄色和红色小点在地图上表示。

将鼠标移到小点上方,可查看气象台名称。

然后点击查看天气观测和预报。

如需切换地图:点击带黑十字的绿色按钮放大地图;点击带横线的绿色按钮缩小地图;或者点击绿色箭头查看邻近地区的地图。


METAR-TAF: